sensor_id;sensor_type;location;lat;lon;timestamp;P1;durP1;ratioP1;P2;durP2;ratioP2
21661;SDS011;10992;48.170;8.596;2024-02-21T00:02:21;12.50;;;5.75;;
21661;SDS011;10992;48.170;8.596;2024-02-21T00:04:48;9.63;;;5.10;;
21661;SDS011;10992;48.170;8.596;2024-02-21T00:07:15;10.48;;;4.55;;
21661;SDS011;10992;48.170;8.596;2024-02-21T00:09:42;11.88;;;5.18;;
21661;SDS011;10992;48.170;8.596;2024-02-21T00:12:09;12.93;;;4.95;;
21661;SDS011;10992;48.170;8.596;2024-02-21T00:14:36;9.93;;;4.25;;
21661;SDS011;10992;48.170;8.596;2024-02-21T00:17:03;10.60;;;5.60;;
21661;SDS011;10992;48.170;8.596;2024-02-21T00:19:30;12.38;;;5.63;;
21661;SDS011;10992;48.170;8.596;2024-02-21T00:21:57;11.07;;;4.90;;
21661;SDS011;10992;48.170;8.596;2024-02-21T00:24:24;12.25;;;5.13;;
21661;SDS011;10992;48.170;8.596;2024-02-21T00:26:50;17.20;;;4.90;;
21661;SDS011;10992;48.170;8.596;2024-02-21T00:29:17;8.88;;;4.72;;
21661;SDS011;10992;48.170;8.596;2024-02-21T00:31:44;9.50;;;4.28;;
21661;SDS011;10992;48.170;8.596;2024-02-21T00:34:11;12.40;;;4.15;;
21661;SDS011;10992;48.170;8.596;2024-02-21T00:36:39;10.55;;;3.70;;
21661;SDS011;10992;48.170;8.596;2024-02-21T00:39:06;13.13;;;5.03;;
21661;SDS011;10992;48.170;8.596;2024-02-21T00:41:33;9.20;;;4.15;;
21661;SDS011;10992;48.170;8.596;2024-02-21T00:44:00;12.00;;;4.38;;
21661;SDS011;10992;48.170;8.596;2024-02-21T00:46:27;8.85;;;4.10;;
21661;SDS011;10992;48.170;8.596;2024-02-21T00:48:54;9.18;;;3.47;;
21661;SDS011;10992;48.170;8.596;2024-02-21T00:51:21;8.10;;;3.70;;
21661;SDS011;10992;48.170;8.596;2024-02-21T00:53:48;8.43;;;3.65;;
21661;SDS011;10992;48.170;8.596;2024-02-21T00:56:14;9.25;;;4.45;;
21661;SDS011;10992;48.170;8.596;2024-02-21T00:58:42;10.02;;;4.15;;
21661;SDS011;10992;48.170;8.596;2024-02-21T01:01:09;8.77;;;4.43;;
21661;SDS011;10992;48.170;8.596;2024-02-21T01:03:38;6.38;;;3.80;;
21661;SDS011;10992;48.170;8.596;2024-02-21T01:06:06;8.68;;;4.03;;
21661;SDS011;10992;48.170;8.596;2024-02-21T01:08:33;11.25;;;3.78;;
21661;SDS011;10992;48.170;8.596;2024-02-21T01:10:59;8.32;;;3.75;;
21661;SDS011;10992;48.170;8.596;2024-02-21T01:13:26;8.55;;;3.40;;
21661;SDS011;10992;48.170;8.596;2024-02-21T01:15:53;10.48;;;3.60;;
21661;SDS011;10992;48.170;8.596;2024-02-21T01:18:20;10.57;;;3.85;;
21661;SDS011;10992;48.170;8.596;2024-02-21T01:20:47;6.43;;;3.55;;
21661;SDS011;10992;48.170;8.596;2024-02-21T01:23:14;11.98;;;3.88;;
21661;SDS011;10992;48.170;8.596;2024-02-21T01:25:41;7.20;;;3.40;;
21661;SDS011;10992;48.170;8.596;2024-02-21T01:28:09;9.23;;;4.38;;
21661;SDS011;10992;48.170;8.596;2024-02-21T01:30:35;8.93;;;3.65;;
21661;SDS011;10992;48.170;8.596;2024-02-21T01:33:03;8.23;;;3.95;;
21661;SDS011;10992;48.170;8.596;2024-02-21T01:35:30;11.40;;;4.10;;
21661;SDS011;10992;48.170;8.596;2024-02-21T01:37:57;8.90;;;4.40;;
21661;SDS011;10992;48.170;8.596;2024-02-21T01:40:24;17.52;;;5.32;;
21661;SDS011;10992;48.170;8.596;2024-02-21T01:42:51;12.48;;;4.95;;
21661;SDS011;10992;48.170;8.596;2024-02-21T01:45:21;16.25;;;5.00;;
21661;SDS011;10992;48.170;8.596;2024-02-21T01:47:48;18.85;;;5.90;;
21661;SDS011;10992;48.170;8.596;2024-02-21T01:50:16;16.08;;;5.38;;
21661;SDS011;10992;48.170;8.596;2024-02-21T01:52:44;12.52;;;5.32;;
21661;SDS011;10992;48.170;8.596;2024-02-21T01:55:13;17.05;;;5.47;;
21661;SDS011;10992;48.170;8.596;2024-02-21T01:57:41;17.33;;;5.45;;
21661;SDS011;10992;48.170;8.596;2024-02-21T02:00:13;13.40;;;5.65;;
21661;SDS011;10992;48.170;8.596;2024-02-21T02:02:41;12.57;;;5.30;;
21661;SDS011;10992;48.170;8.596;2024-02-21T02:05:08;11.07;;;4.70;;
21661;SDS011;10992;48.170;8.596;2024-02-21T02:07:36;10.40;;;4.38;;
21661;SDS011;10992;48.170;8.596;2024-02-21T02:10:03;10.90;;;4.32;;
21661;SDS011;10992;48.170;8.596;2024-02-21T02:12:31;9.23;;;4.07;;
21661;SDS011;10992;48.170;8.596;2024-02-21T02:15:00;6.32;;;3.75;;
21661;SDS011;10992;48.170;8.596;2024-02-21T02:17:31;13.95;;;4.50;;
21661;SDS011;10992;48.170;8.596;2024-02-21T02:19:58;8.65;;;3.80;;
21661;SDS011;10992;48.170;8.596;2024-02-21T02:22:28;11.35;;;4.30;;
21661;SDS011;10992;48.170;8.596;2024-02-21T02:24:55;14.98;;;3.78;;
21661;SDS011;10992;48.170;8.596;2024-02-21T02:27:24;10.73;;;4.05;;
21661;SDS011;10992;48.170;8.596;2024-02-21T02:29:50;11.10;;;4.25;;
21661;SDS011;10992;48.170;8.596;2024-02-21T02:32:18;7.38;;;4.32;;
21661;SDS011;10992;48.170;8.596;2024-02-21T02:34:45;11.95;;;4.40;;
21661;SDS011;10992;48.170;8.596;2024-02-21T02:37:12;7.45;;;4.07;;
21661;SDS011;10992;48.170;8.596;2024-02-21T02:39:39;7.93;;;4.55;;
21661;SDS011;10992;48.170;8.596;2024-02-21T02:42:06;10.02;;;3.90;;
21661;SDS011;10992;48.170;8.596;2024-02-21T02:44:33;10.35;;;4.22;;
21661;SDS011;10992;48.170;8.596;2024-02-21T02:47:00;8.18;;;3.80;;
21661;SDS011;10992;48.170;8.596;2024-02-21T02:49:27;9.70;;;3.90;;
21661;SDS011;10992;48.170;8.596;2024-02-21T02:51:54;11.32;;;4.35;;
21661;SDS011;10992;48.170;8.596;2024-02-21T02:54:20;11.43;;;4.55;;
21661;SDS011;10992;48.170;8.596;2024-02-21T02:56:47;12.32;;;4.32;;
21661;SDS011;10992;48.170;8.596;2024-02-21T02:59:16;10.82;;;4.05;;
21661;SDS011;10992;48.170;8.596;2024-02-21T03:01:43;10.27;;;4.53;;
21661;SDS011;10992;48.170;8.596;2024-02-21T03:04:10;9.70;;;4.28;;
21661;SDS011;10992;48.170;8.596;2024-02-21T03:06:37;9.48;;;3.92;;
21661;SDS011;10992;48.170;8.596;2024-02-21T03:09:04;9.55;;;4.07;;
21661;SDS011;10992;48.170;8.596;2024-02-21T03:11:35;10.68;;;3.67;;
21661;SDS011;10992;48.170;8.596;2024-02-21T03:14:04;12.50;;;4.07;;
21661;SDS011;10992;48.170;8.596;2024-02-21T03:16:31;8.63;;;3.75;;
21661;SDS011;10992;48.170;8.596;2024-02-21T03:18:58;11.30;;;3.97;;
21661;SDS011;10992;48.170;8.596;2024-02-21T03:21:25;8.57;;;4.18;;
21661;SDS011;10992;48.170;8.596;2024-02-21T03:23:52;7.68;;;3.47;;
21661;SDS011;10992;48.170;8.596;2024-02-21T03:26:18;11.60;;;4.18;;
21661;SDS011;10992;48.170;8.596;2024-02-21T03:28:45;14.63;;;3.80;;
21661;SDS011;10992;48.170;8.596;2024-02-21T03:31:13;7.80;;;3.88;;
21661;SDS011;10992;48.170;8.596;2024-02-21T03:33:41;16.33;;;4.10;;
21661;SDS011;10992;48.170;8.596;2024-02-21T03:36:14;14.07;;;3.75;;
21661;SDS011;10992;48.170;8.596;2024-02-21T03:38:42;13.93;;;4.45;;
21661;SDS011;10992;48.170;8.596;2024-02-21T03:41:08;11.40;;;4.35;;
21661;SDS011;10992;48.170;8.596;2024-02-21T03:43:37;9.75;;;3.90;;
21661;SDS011;10992;48.170;8.596;2024-02-21T03:46:05;12.65;;;4.57;;
21661;SDS011;10992;48.170;8.596;2024-02-21T03:48:33;10.90;;;4.40;;
21661;SDS011;10992;48.170;8.596;2024-02-21T03:51:00;12.77;;;3.60;;
21661;SDS011;10992;48.170;8.596;2024-02-21T03:53:26;11.68;;;4.05;;
21661;SDS011;10992;48.170;8.596;2024-02-21T03:55:54;8.40;;;4.22;;
21661;SDS011;10992;48.170;8.596;2024-02-21T03:58:22;9.65;;;3.92;;
21661;SDS011;10992;48.170;8.596;2024-02-21T04:00:48;11.25;;;4.00;;
21661;SDS011;10992;48.170;8.596;2024-02-21T04:03:15;7.32;;;3.63;;
21661;SDS011;10992;48.170;8.596;2024-02-21T04:05:42;9.95;;;3.55;;
21661;SDS011;10992;48.170;8.596;2024-02-21T04:08:09;14.10;;;4.78;;
21661;SDS011;10992;48.170;8.596;2024-02-21T04:10:36;17.50;;;5.05;;
21661;SDS011;10992;48.170;8.596;2024-02-21T04:13:04;9.90;;;4.28;;
21661;SDS011;10992;48.170;8.596;2024-02-21T04:15:32;11.35;;;4.43;;
21661;SDS011;10992;48.170;8.596;2024-02-21T04:18:00;12.32;;;5.25;;
21661;SDS011;10992;48.170;8.596;2024-02-21T04:20:27;11.50;;;4.32;;
21661;SDS011;10992;48.170;8.596;2024-02-21T04:22:54;9.45;;;4.25;;
21661;SDS011;10992;48.170;8.596;2024-02-21T04:25:21;10.95;;;4.35;;
21661;SDS011;10992;48.170;8.596;2024-02-21T04:27:48;11.32;;;5.00;;
21661;SDS011;10992;48.170;8.596;2024-02-21T04:30:15;8.82;;;4.47;;
21661;SDS011;10992;48.170;8.596;2024-02-21T04:32:43;10.23;;;5.18;;
21661;SDS011;10992;48.170;8.596;2024-02-21T04:35:10;10.65;;;4.55;;
21661;SDS011;10992;48.170;8.596;2024-02-21T04:37:37;14.88;;;5.03;;
21661;SDS011;10992;48.170;8.596;2024-02-21T04:40:04;13.10;;;4.80;;
21661;SDS011;10992;48.170;8.596;2024-02-21T04:42:32;9.63;;;5.05;;
21661;SDS011;10992;48.170;8.596;2024-02-21T04:44:58;12.30;;;5.20;;
21661;SDS011;10992;48.170;8.596;2024-02-21T04:47:25;14.63;;;5.32;;
21661;SDS011;10992;48.170;8.596;2024-02-21T04:49:52;17.92;;;5.45;;
21661;SDS011;10992;48.170;8.596;2024-02-21T04:52:19;13.60;;;6.38;;
21661;SDS011;10992;48.170;8.596;2024-02-21T04:54:46;11.32;;;5.53;;
21661;SDS011;10992;48.170;8.596;2024-02-21T04:57:13;14.02;;;6.00;;
21661;SDS011;10992;48.170;8.596;2024-02-21T04:59:44;17.90;;;5.90;;
21661;SDS011;10992;48.170;8.596;2024-02-21T05:02:11;14.57;;;6.50;;
21661;SDS011;10992;48.170;8.596;2024-02-21T05:04:42;14.88;;;5.78;;
21661;SDS011;10992;48.170;8.596;2024-02-21T05:07:09;17.58;;;6.70;;
21661;SDS011;10992;48.170;8.596;2024-02-21T05:09:37;15.80;;;6.80;;
21661;SDS011;10992;48.170;8.596;2024-02-21T05:12:04;16.65;;;7.80;;
21661;SDS011;10992;48.170;8.596;2024-02-21T05:14:31;21.90;;;9.63;;
21661;SDS011;10992;48.170;8.596;2024-02-21T05:16:58;12.77;;;7.35;;
21661;SDS011;10992;48.170;8.596;2024-02-21T05:19:25;16.13;;;7.10;;
21661;SDS011;10992;48.170;8.596;2024-02-21T05:21:52;10.90;;;6.38;;
21661;SDS011;10992;48.170;8.596;2024-02-21T05:24:19;12.15;;;5.85;;
21661;SDS011;10992;48.170;8.596;2024-02-21T05:26:46;12.60;;;6.20;;
21661;SDS011;10992;48.170;8.596;2024-02-21T05:29:13;13.35;;;6.50;;
21661;SDS011;10992;48.170;8.596;2024-02-21T05:31:59;10.82;;;6.43;;
21661;SDS011;10992;48.170;8.596;2024-02-21T05:34:27;14.90;;;7.50;;
21661;SDS011;10992;48.170;8.596;2024-02-21T05:36:54;18.30;;;7.13;;
21661;SDS011;10992;48.170;8.596;2024-02-21T05:39:21;17.40;;;7.40;;
21661;SDS011;10992;48.170;8.596;2024-02-21T05:41:49;18.02;;;6.95;;
21661;SDS011;10992;48.170;8.596;2024-02-21T05:44:17;15.05;;;7.22;;
21661;SDS011;10992;48.170;8.596;2024-02-21T05:46:44;16.65;;;6.47;;
21661;SDS011;10992;48.170;8.596;2024-02-21T05:49:11;15.18;;;6.85;;
21661;SDS011;10992;48.170;8.596;2024-02-21T05:51:38;18.05;;;7.82;;
21661;SDS011;10992;48.170;8.596;2024-02-21T05:54:05;14.75;;;7.97;;
21661;SDS011;10992;48.170;8.596;2024-02-21T05:56:33;18.83;;;8.15;;
21661;SDS011;10992;48.170;8.596;2024-02-21T05:59:00;13.20;;;6.63;;
21661;SDS011;10992;48.170;8.596;2024-02-21T06:01:27;13.77;;;7.18;;
21661;SDS011;10992;48.170;8.596;2024-02-21T06:03:54;13.02;;;6.50;;
21661;SDS011;10992;48.170;8.596;2024-02-21T06:06:21;14.05;;;7.18;;
21661;SDS011;10992;48.170;8.596;2024-02-21T06:08:48;14.65;;;7.07;;
21661;SDS011;10992;48.170;8.596;2024-02-21T06:11:15;17.65;;;7.20;;
21661;SDS011;10992;48.170;8.596;2024-02-21T06:13:42;16.80;;;7.50;;
21661;SDS011;10992;48.170;8.596;2024-02-21T06:16:09;15.13;;;7.25;;
21661;SDS011;10992;48.170;8.596;2024-02-21T06:18:36;18.58;;;7.30;;
21661;SDS011;10992;48.170;8.596;2024-02-21T06:21:04;13.95;;;7.43;;
21661;SDS011;10992;48.170;8.596;2024-02-21T06:23:31;17.33;;;8.00;;
21661;SDS011;10992;48.170;8.596;2024-02-21T06:25:58;12.25;;;6.45;;
21661;SDS011;10992;48.170;8.596;2024-02-21T06:28:25;12.60;;;7.20;;
21661;SDS011;10992;48.170;8.596;2024-02-21T06:30:52;12.15;;;6.55;;
21661;SDS011;10992;48.170;8.596;2024-02-21T06:33:18;12.32;;;6.88;;
21661;SDS011;10992;48.170;8.596;2024-02-21T06:35:49;12.63;;;6.82;;
21661;SDS011;10992;48.170;8.596;2024-02-21T06:38:19;20.05;;;7.85;;
21661;SDS011;10992;48.170;8.596;2024-02-21T06:40:46;13.00;;;7.57;;
21661;SDS011;10992;48.170;8.596;2024-02-21T06:43:17;15.48;;;7.68;;
21661;SDS011;10992;48.170;8.596;2024-02-21T06:45:45;15.40;;;8.18;;
21661;SDS011;10992;48.170;8.596;2024-02-21T06:48:18;15.60;;;8.95;;
21661;SDS011;10992;48.170;8.596;2024-02-21T06:50:45;19.48;;;8.50;;
21661;SDS011;10992;48.170;8.596;2024-02-21T06:53:12;18.30;;;8.43;;
21661;SDS011;10992;48.170;8.596;2024-02-21T06:55:39;11.68;;;7.78;;
21661;SDS011;10992;48.170;8.596;2024-02-21T06:58:06;14.50;;;8.23;;
21661;SDS011;10992;48.170;8.596;2024-02-21T07:00:38;22.98;;;10.05;;
21661;SDS011;10992;48.170;8.596;2024-02-21T07:03:06;20.58;;;9.32;;
21661;SDS011;10992;48.170;8.596;2024-02-21T07:05:33;20.20;;;8.88;;
21661;SDS011;10992;48.170;8.596;2024-02-21T07:08:00;15.50;;;8.43;;
21661;SDS011;10992;48.170;8.596;2024-02-21T07:10:28;16.50;;;8.10;;
21661;SDS011;10992;48.170;8.596;2024-02-21T07:12:55;15.00;;;7.00;;
21661;SDS011;10992;48.170;8.596;2024-02-21T07:15:22;14.15;;;7.47;;
21661;SDS011;10992;48.170;8.596;2024-02-21T07:17:49;17.98;;;7.68;;
21661;SDS011;10992;48.170;8.596;2024-02-21T07:20:15;14.52;;;7.30;;
21661;SDS011;10992;48.170;8.596;2024-02-21T07:22:42;18.65;;;7.05;;
21661;SDS011;10992;48.170;8.596;2024-02-21T07:25:09;15.85;;;7.55;;
21661;SDS011;10992;48.170;8.596;2024-02-21T07:27:36;14.38;;;6.60;;
21661;SDS011;10992;48.170;8.596;2024-02-21T07:30:03;17.45;;;7.30;;
21661;SDS011;10992;48.170;8.596;2024-02-21T07:32:31;17.27;;;7.18;;
21661;SDS011;10992;48.170;8.596;2024-02-21T07:34:58;15.38;;;6.82;;
21661;SDS011;10992;48.170;8.596;2024-02-21T07:37:25;11.23;;;6.50;;
21661;SDS011;10992;48.170;8.596;2024-02-21T07:39:54;15.73;;;6.65;;
21661;SDS011;10992;48.170;8.596;2024-02-21T07:42:21;12.05;;;6.57;;
21661;SDS011;10992;48.170;8.596;2024-02-21T07:44:48;12.98;;;6.18;;
21661;SDS011;10992;48.170;8.596;2024-02-21T07:47:15;12.45;;;6.45;;
21661;SDS011;10992;48.170;8.596;2024-02-21T07:49:43;12.15;;;6.68;;
21661;SDS011;10992;48.170;8.596;2024-02-21T07:52:11;12.32;;;6.55;;
21661;SDS011;10992;48.170;8.596;2024-02-21T07:54:38;15.18;;;6.20;;
21661;SDS011;10992;48.170;8.596;2024-02-21T07:57:05;9.27;;;6.05;;
21661;SDS011;10992;48.170;8.596;2024-02-21T07:59:32;11.70;;;6.03;;
21661;SDS011;10992;48.170;8.596;2024-02-21T08:01:58;11.90;;;6.07;;
21661;SDS011;10992;48.170;8.596;2024-02-21T08:04:26;13.90;;;6.90;;
21661;SDS011;10992;48.170;8.596;2024-02-21T08:06:53;10.43;;;6.30;;
21661;SDS011;10992;48.170;8.596;2024-02-21T08:09:22;12.10;;;5.82;;
21661;SDS011;10992;48.170;8.596;2024-02-21T08:11:49;16.98;;;7.32;;
21661;SDS011;10992;48.170;8.596;2024-02-21T08:14:16;12.52;;;6.32;;
21661;SDS011;10992;48.170;8.596;2024-02-21T08:16:46;16.17;;;6.60;;
21661;SDS011;10992;48.170;8.596;2024-02-21T08:19:14;12.95;;;6.25;;
21661;SDS011;10992;48.170;8.596;2024-02-21T08:21:41;14.73;;;6.47;;
21661;SDS011;10992;48.170;8.596;2024-02-21T08:24:07;13.88;;;6.28;;
21661;SDS011;10992;48.170;8.596;2024-02-21T08:26:34;8.38;;;5.97;;
21661;SDS011;10992;48.170;8.596;2024-02-21T08:29:02;11.73;;;6.05;;
21661;SDS011;10992;48.170;8.596;2024-02-21T08:31:29;8.98;;;5.28;;
21661;SDS011;10992;48.170;8.596;2024-02-21T08:33:58;10.65;;;5.20;;
21661;SDS011;10992;48.170;8.596;2024-02-21T08:36:32;14.25;;;4.88;;
21661;SDS011;10992;48.170;8.596;2024-02-21T08:39:00;10.73;;;5.20;;
21661;SDS011;10992;48.170;8.596;2024-02-21T08:41:31;9.77;;;4.85;;
21661;SDS011;10992;48.170;8.596;2024-02-21T08:44:19;17.73;;;5.75;;
21661;SDS011;10992;48.170;8.596;2024-02-21T08:46:45;10.00;;;4.90;;
21661;SDS011;10992;48.170;8.596;2024-02-21T08:49:13;9.93;;;4.68;;
21661;SDS011;10992;48.170;8.596;2024-02-21T08:51:40;11.10;;;4.82;;
21661;SDS011;10992;48.170;8.596;2024-02-21T08:54:07;7.78;;;4.68;;
21661;SDS011;10992;48.170;8.596;2024-02-21T08:56:34;8.88;;;4.95;;
21661;SDS011;10992;48.170;8.596;2024-02-21T08:59:01;16.33;;;5.90;;
21661;SDS011;10992;48.170;8.596;2024-02-21T09:01:29;12.13;;;5.10;;
21661;SDS011;10992;48.170;8.596;2024-02-21T09:03:56;11.20;;;5.45;;
21661;SDS011;10992;48.170;8.596;2024-02-21T09:06:23;8.38;;;5.82;;
21661;SDS011;10992;48.170;8.596;2024-02-21T09:08:49;12.95;;;5.40;;
21661;SDS011;10992;48.170;8.596;2024-02-21T09:11:16;9.57;;;5.82;;
21661;SDS011;10992;48.170;8.596;2024-02-21T09:13:43;12.13;;;5.82;;
21661;SDS011;10992;48.170;8.596;2024-02-21T09:16:10;11.98;;;5.32;;
21661;SDS011;10992;48.170;8.596;2024-02-21T09:18:37;9.98;;;5.68;;
21661;SDS011;10992;48.170;8.596;2024-02-21T09:21:04;9.43;;;5.63;;
21661;SDS011;10992;48.170;8.596;2024-02-21T09:23:31;12.52;;;5.00;;
21661;SDS011;10992;48.170;8.596;2024-02-21T09:25:58;10.23;;;5.15;;
21661;SDS011;10992;48.170;8.596;2024-02-21T09:28:35;10.13;;;4.72;;
21661;SDS011;10992;48.170;8.596;2024-02-21T09:31:28;9.45;;;4.50;;
21661;SDS011;10992;48.170;8.596;2024-02-21T09:33:55;6.88;;;4.35;;
21661;SDS011;10992;48.170;8.596;2024-02-21T09:36:22;7.38;;;4.65;;
21661;SDS011;10992;48.170;8.596;2024-02-21T09:38:49;7.10;;;4.20;;
21661;SDS011;10992;48.170;8.596;2024-02-21T09:41:17;8.23;;;4.28;;
21661;SDS011;10992;48.170;8.596;2024-02-21T09:43:52;7.80;;;4.00;;
21661;SDS011;10992;48.170;8.596;2024-02-21T09:46:22;8.90;;;3.72;;
21661;SDS011;10992;48.170;8.596;2024-02-21T09:49:10;7.28;;;4.28;;
21661;SDS011;10992;48.170;8.596;2024-02-21T09:51:43;8.75;;;3.72;;
21661;SDS011;10992;48.170;8.596;2024-02-21T09:54:12;10.48;;;3.38;;
21661;SDS011;10992;48.170;8.596;2024-02-21T09:56:45;9.57;;;4.32;;
21661;SDS011;10992;48.170;8.596;2024-02-21T09:59:16;6.65;;;3.30;;
21661;SDS011;10992;48.170;8.596;2024-02-21T10:01:43;6.15;;;3.05;;
21661;SDS011;10992;48.170;8.596;2024-02-21T10:04:11;5.70;;;3.28;;
21661;SDS011;10992;48.170;8.596;2024-02-21T10:06:38;5.20;;;3.10;;
21661;SDS011;10992;48.170;8.596;2024-02-21T10:09:06;6.35;;;3.22;;
21661;SDS011;10992;48.170;8.596;2024-02-21T10:11:33;5.63;;;2.70;;
21661;SDS011;10992;48.170;8.596;2024-02-21T10:14:04;6.25;;;2.38;;
21661;SDS011;10992;48.170;8.596;2024-02-21T10:16:33;3.58;;;2.35;;
21661;SDS011;10992;48.170;8.596;2024-02-21T10:19:00;4.68;;;2.40;;
21661;SDS011;10992;48.170;8.596;2024-02-21T10:21:27;4.13;;;2.38;;
21661;SDS011;10992;48.170;8.596;2024-02-21T10:23:54;4.45;;;2.53;;
21661;SDS011;10992;48.170;8.596;2024-02-21T10:26:21;4.75;;;1.90;;
21661;SDS011;10992;48.170;8.596;2024-02-21T10:28:48;3.50;;;2.00;;
21661;SDS011;10992;48.170;8.596;2024-02-21T10:31:22;5.30;;;2.10;;
21661;SDS011;10992;48.170;8.596;2024-02-21T10:33:54;3.72;;;1.88;;
21661;SDS011;10992;48.170;8.596;2024-02-21T10:36:25;7.05;;;3.30;;
21661;SDS011;10992;48.170;8.596;2024-02-21T10:38:52;6.20;;;3.25;;
21661;SDS011;10992;48.170;8.596;2024-02-21T10:41:23;4.78;;;2.35;;
21661;SDS011;10992;48.170;8.596;2024-02-21T10:43:54;6.82;;;3.35;;
21661;SDS011;10992;48.170;8.596;2024-02-21T10:46:22;6.88;;;2.60;;
21661;SDS011;10992;48.170;8.596;2024-02-21T10:51:37;3.63;;;2.25;;
21661;SDS011;10992;48.170;8.596;2024-02-21T10:56:45;3.92;;;2.30;;
21661;SDS011;10992;48.170;8.596;2024-02-21T10:59:15;2.95;;;1.80;;
21661;SDS011;10992;48.170;8.596;2024-02-21T11:01:44;4.18;;;2.05;;
21661;SDS011;10992;48.170;8.596;2024-02-21T11:04:11;3.58;;;1.90;;
21661;SDS011;10992;48.170;8.596;2024-02-21T11:06:39;3.58;;;1.90;;
21661;SDS011;10992;48.170;8.596;2024-02-21T11:09:08;4.65;;;2.15;;
21661;SDS011;10992;48.170;8.596;2024-02-21T11:11:43;4.35;;;1.90;;
21661;SDS011;10992;48.170;8.596;2024-02-21T11:14:17;3.17;;;2.10;;
21661;SDS011;10992;48.170;8.596;2024-02-21T11:16:44;5.30;;;2.65;;
21661;SDS011;10992;48.170;8.596;2024-02-21T11:21:46;6.95;;;2.03;;
21661;SDS011;10992;48.170;8.596;2024-02-21T11:24:14;5.03;;;3.05;;
21661;SDS011;10992;48.170;8.596;2024-02-21T11:26:56;4.20;;;2.33;;
21661;SDS011;10992;48.170;8.596;2024-02-21T11:29:39;4.50;;;2.60;;
21661;SDS011;10992;48.170;8.596;2024-02-21T11:32:15;6.50;;;2.67;;
21661;SDS011;10992;48.170;8.596;2024-02-21T11:34:56;7.28;;;2.80;;
21661;SDS011;10992;48.170;8.596;2024-02-21T11:37:27;5.97;;;2.92;;
21661;SDS011;10992;48.170;8.596;2024-02-21T11:39:55;6.30;;;3.03;;
21661;SDS011;10992;48.170;8.596;2024-02-21T11:42:22;4.07;;;2.40;;
21661;SDS011;10992;48.170;8.596;2024-02-21T11:44:52;5.70;;;3.25;;
21661;SDS011;10992;48.170;8.596;2024-02-21T11:47:20;5.90;;;2.83;;
21661;SDS011;10992;48.170;8.596;2024-02-21T11:49:47;3.80;;;2.85;;
21661;SDS011;10992;48.170;8.596;2024-02-21T11:52:16;3.90;;;2.67;;
21661;SDS011;10992;48.170;8.596;2024-02-21T11:54:45;5.22;;;2.53;;
21661;SDS011;10992;48.170;8.596;2024-02-21T11:57:12;4.85;;;2.35;;
21661;SDS011;10992;48.170;8.596;2024-02-21T11:59:43;3.33;;;2.40;;
21661;SDS011;10992;48.170;8.596;2024-02-21T12:02:11;4.90;;;2.58;;
21661;SDS011;10992;48.170;8.596;2024-02-21T12:04:39;4.65;;;2.67;;
21661;SDS011;10992;48.170;8.596;2024-02-21T12:07:06;6.18;;;2.47;;
21661;SDS011;10992;48.170;8.596;2024-02-21T12:09:34;3.28;;;2.53;;
21661;SDS011;10992;48.170;8.596;2024-02-21T12:12:02;6.53;;;2.35;;
21661;SDS011;10992;48.170;8.596;2024-02-21T12:14:33;5.45;;;2.53;;
21661;SDS011;10992;48.170;8.596;2024-02-21T12:17:01;3.92;;;2.55;;
21661;SDS011;10992;48.170;8.596;2024-02-21T12:19:32;5.10;;;2.58;;
21661;SDS011;10992;48.170;8.596;2024-02-21T12:22:00;2.97;;;2.22;;
21661;SDS011;10992;48.170;8.596;2024-02-21T12:24:28;3.85;;;2.50;;
21661;SDS011;10992;48.170;8.596;2024-02-21T12:26:56;3.92;;;2.22;;
21661;SDS011;10992;48.170;8.596;2024-02-21T12:29:25;4.57;;;2.10;;
21661;SDS011;10992;48.170;8.596;2024-02-21T12:31:52;6.32;;;2.45;;
21661;SDS011;10992;48.170;8.596;2024-02-21T12:34:21;4.22;;;2.97;;
21661;SDS011;10992;48.170;8.596;2024-02-21T12:37:04;7.55;;;3.35;;
21661;SDS011;10992;48.170;8.596;2024-02-21T12:39:31;5.95;;;2.78;;
21661;SDS011;10992;48.170;8.596;2024-02-21T12:41:58;5.25;;;2.80;;
21661;SDS011;10992;48.170;8.596;2024-02-21T12:44:26;4.57;;;2.50;;
21661;SDS011;10992;48.170;8.596;2024-02-21T12:46:53;4.80;;;2.42;;
21661;SDS011;10992;48.170;8.596;2024-02-21T12:49:21;4.13;;;2.55;;
21661;SDS011;10992;48.170;8.596;2024-02-21T12:51:49;5.65;;;3.00;;
21661;SDS011;10992;48.170;8.596;2024-02-21T12:54:15;4.20;;;2.70;;
21661;SDS011;10992;48.170;8.596;2024-02-21T12:56:42;3.85;;;3.03;;
21661;SDS011;10992;48.170;8.596;2024-02-21T12:59:09;5.47;;;2.50;;
21661;SDS011;10992;48.170;8.596;2024-02-21T13:01:36;3.63;;;1.92;;
21661;SDS011;10992;48.170;8.596;2024-02-21T13:04:04;3.17;;;2.20;;
21661;SDS011;10992;48.170;8.596;2024-02-21T13:06:32;4.00;;;2.70;;
21661;SDS011;10992;48.170;8.596;2024-02-21T13:08:59;6.18;;;3.03;;
21661;SDS011;10992;48.170;8.596;2024-02-21T13:11:30;5.47;;;3.00;;
21661;SDS011;10992;48.170;8.596;2024-02-21T13:13:58;8.18;;;3.08;;
21661;SDS011;10992;48.170;8.596;2024-02-21T13:16:25;4.88;;;2.88;;
21661;SDS011;10992;48.170;8.596;2024-02-21T13:18:53;5.90;;;2.72;;
21661;SDS011;10992;48.170;8.596;2024-02-21T13:21:20;4.63;;;2.67;;
21661;SDS011;10992;48.170;8.596;2024-02-21T13:23:47;6.57;;;2.97;;
21661;SDS011;10992;48.170;8.596;2024-02-21T13:26:14;5.13;;;3.42;;
21661;SDS011;10992;48.170;8.596;2024-02-21T13:28:41;5.47;;;3.38;;
21661;SDS011;10992;48.170;8.596;2024-02-21T13:31:11;3.60;;;2.72;;
21661;SDS011;10992;48.170;8.596;2024-02-21T13:33:38;12.60;;;3.70;;
21661;SDS011;10992;48.170;8.596;2024-02-21T13:36:05;4.85;;;2.85;;
21661;SDS011;10992;48.170;8.596;2024-02-21T13:38:32;3.55;;;2.70;;
21661;SDS011;10992;48.170;8.596;2024-02-21T13:40:59;6.05;;;3.20;;
21661;SDS011;10992;48.170;8.596;2024-02-21T13:43:27;7.18;;;2.80;;
21661;SDS011;10992;48.170;8.596;2024-02-21T13:45:58;5.35;;;3.22;;
21661;SDS011;10992;48.170;8.596;2024-02-21T13:48:25;10.50;;;3.20;;
21661;SDS011;10992;48.170;8.596;2024-02-21T13:50:53;6.70;;;2.60;;
21661;SDS011;10992;48.170;8.596;2024-02-21T13:53:20;4.22;;;2.88;;
21661;SDS011;10992;48.170;8.596;2024-02-21T13:55:49;4.63;;;2.50;;
21661;SDS011;10992;48.170;8.596;2024-02-21T13:58:16;8.38;;;2.55;;
21661;SDS011;10992;48.170;8.596;2024-02-21T14:00:43;3.60;;;2.60;;
21661;SDS011;10992;48.170;8.596;2024-02-21T14:03:10;5.55;;;2.72;;
21661;SDS011;10992;48.170;8.596;2024-02-21T14:05:37;4.75;;;2.88;;
21661;SDS011;10992;48.170;8.596;2024-02-21T14:08:08;9.63;;;5.13;;
21661;SDS011;10992;48.170;8.596;2024-02-21T14:10:35;6.72;;;4.55;;
21661;SDS011;10992;48.170;8.596;2024-02-21T14:13:04;8.20;;;3.60;;
21661;SDS011;10992;48.170;8.596;2024-02-21T14:15:30;12.13;;;5.00;;
21661;SDS011;10992;48.170;8.596;2024-02-21T14:17:57;14.50;;;6.88;;
21661;SDS011;10992;48.170;8.596;2024-02-21T14:20:24;7.90;;;4.38;;
21661;SDS011;10992;48.170;8.596;2024-02-21T14:22:51;10.05;;;3.30;;
21661;SDS011;10992;48.170;8.596;2024-02-21T14:25:18;6.57;;;3.40;;
21661;SDS011;10992;48.170;8.596;2024-02-21T14:27:45;6.05;;;3.20;;
21661;SDS011;10992;48.170;8.596;2024-02-21T14:30:12;4.18;;;2.80;;
21661;SDS011;10992;48.170;8.596;2024-02-21T14:32:40;5.78;;;3.20;;
21661;SDS011;10992;48.170;8.596;2024-02-21T14:35:10;8.38;;;3.08;;
21661;SDS011;10992;48.170;8.596;2024-02-21T14:37:37;5.65;;;3.10;;
21661;SDS011;10992;48.170;8.596;2024-02-21T14:40:04;8.20;;;3.38;;
21661;SDS011;10992;48.170;8.596;2024-02-21T14:42:32;6.35;;;3.42;;
21661;SDS011;10992;48.170;8.596;2024-02-21T14:44:59;4.75;;;3.35;;
21661;SDS011;10992;48.170;8.596;2024-02-21T14:47:32;5.43;;;3.03;;
21661;SDS011;10992;48.170;8.596;2024-02-21T14:50:00;7.22;;;3.83;;
21661;SDS011;10992;48.170;8.596;2024-02-21T14:52:29;9.40;;;4.13;;
21661;SDS011;10992;48.170;8.596;2024-02-21T14:54:56;6.15;;;3.30;;